Time;durP1;ratioP1;P1;durP2;ratioP2;P2;SDS_P1;SDS_P2;PMS_P1;PMS_P2;Temp;Humidity;BMP_temperature;BMP_pressure;BME280_temperature;BME280_humidity;BME280_pressure;Samples;Min_cycle;Max_cycle;Signal;HPM_P1;HPM_P2
2022/10/30 00:01:29;;;;;;;23.83;10.20;;;;;;;;;;5022497;28;20651;-72
2022/10/30 00:03:55;;;;;;;21.00;10.60;;;;;;;;;;5021473;28;20168;-71
2022/10/30 00:06:22;;;;;;;19.25;10.20;;;;;;;;;;5023424;28;20546;-71
2022/10/30 00:08:48;;;;;;;21.95;9.00;;;;;;;;;;5021761;28;20033;-71
2022/10/30 00:11:14;;;;;;;20.95;8.80;;;;;;;;;;5017342;28;20021;-72
2022/10/30 00:13:43;;;;;;;21.23;9.13;;;;;;;;;;5025694;28;20025;-72
2022/10/30 00:16:09;;;;;;;26.33;10.10;;;;;;;;;;5021446;28;20021;-71
2022/10/30 00:18:40;;;;;;;21.55;10.75;;;;;;;;;;5025181;28;20033;-71
2022/10/30 00:21:11;;;;;;;20.70;10.18;;;;;;;;;;5024780;28;20018;-71
2022/10/30 00:23:37;;;;;;;16.42;10.80;;;;;;;;;;5023045;28;20025;-71
2022/10/30 00:26:04;;;;;;;20.48;12.98;;;;;;;;;;5028349;28;20056;-71
2022/10/30 00:28:30;;;;;;;26.73;14.07;;;;;;;;;;5026200;28;20018;-71
2022/10/30 00:31:03;;;;;;;24.63;12.48;;;;;;;;;;5022251;28;20382;-71
2022/10/30 00:33:30;;;;;;;17.20;12.75;;;;;;;;;;5024333;28;20031;-71
2022/10/30 00:35:56;;;;;;;23.33;12.60;;;;;;;;;;5027540;28;20074;-71
2022/10/30 00:38:22;;;;;;;22.85;12.57;;;;;;;;;;5025790;28;20526;-71
2022/10/30 00:40:49;;;;;;;23.02;11.00;;;;;;;;;;5023355;28;20377;-71
2022/10/30 00:43:35;;;;;;;19.80;10.15;;;;;;;;;;5019374;28;20026;-71
2022/10/30 00:46:14;;;;;;;29.50;9.73;;;;;;;;;;5019859;28;20379;-71
2022/10/30 00:48:41;;;;;;;18.83;9.73;;;;;;;;;;5022931;28;20034;-71
2022/10/30 00:51:09;;;;;;;19.40;10.05;;;;;;;;;;5019153;28;20040;-71
2022/10/30 00:53:35;;;;;;;16.27;9.18;;;;;;;;;;5031955;28;20029;-71
2022/10/30 00:56:03;;;;;;;20.73;10.20;;;;;;;;;;5025934;28;20153;-71
2022/10/30 00:58:32;;;;;;;17.02;9.80;;;;;;;;;;5020802;28;20057;-71
2022/10/30 01:01:00;;;;;;;14.88;10.00;;;;;;;;;;5021857;28;20033;-72
2022/10/30 01:03:27;;;;;;;21.98;10.20;;;;;;;;;;5024772;28;20032;-72
2022/10/30 01:05:56;;;;;;;15.98;10.15;;;;;;;;;;5021485;28;20524;-72
2022/10/30 01:08:23;;;;;;;24.30;10.80;;;;;;;;;;5018321;28;20492;-71
2022/10/30 01:10:49;;;;;;;17.65;10.77;;;;;;;;;;5014380;28;20045;-71
2022/10/30 01:13:16;;;;;;;21.17;10.85;;;;;;;;;;5026527;28;20020;-72
2022/10/30 01:15:52;;;;;;;14.38;8.70;;;;;;;;;;5017115;28;20033;-71
2022/10/30 01:18:42;;;;;;;17.83;8.75;;;;;;;;;;5023645;28;20053;-71
2022/10/30 01:21:18;;;;;;;18.70;9.02;;;;;;;;;;5020521;28;20033;-71
2022/10/30 01:23:53;;;;;;;17.65;9.05;;;;;;;;;;5018801;28;20115;-71
2022/10/30 01:26:48;;;;;;;20.83;9.65;;;;;;;;;;5021332;28;20021;-71
2022/10/30 01:29:22;;;;;;;19.20;10.18;;;;;;;;;;5027126;28;20026;-71
2022/10/30 01:32:06;;;;;;;19.17;8.68;;;;;;;;;;5023757;28;20022;-72
2022/10/30 01:34:51;;;;;;;18.70;9.05;;;;;;;;;;5021640;28;20026;-72
2022/10/30 01:37:24;;;;;;;14.63;7.28;;;;;;;;;;5019964;28;20049;-71
2022/10/30 01:39:50;;;;;;;18.02;8.10;;;;;;;;;;5020526;28;20120;-71
2022/10/30 01:42:36;;;;;;;11.85;7.20;;;;;;;;;;5023110;28;20070;-71
2022/10/30 01:45:02;;;;;;;17.80;7.65;;;;;;;;;;5022121;28;20037;-71
2022/10/30 01:47:32;;;;;;;14.35;7.25;;;;;;;;;;5017754;28;20029;-71
2022/10/30 01:50:04;;;;;;;15.05;7.00;;;;;;;;;;5018819;28;20017;-72
2022/10/30 01:52:38;;;;;;;10.23;6.22;;;;;;;;;;5022585;28;20032;-72
2022/10/30 01:55:13;;;;;;;14.88;7.68;;;;;;;;;;5017265;28;20421;-72
2022/10/30 01:57:44;;;;;;;9.25;6.22;;;;;;;;;;5020579;28;20024;-72
2022/10/30 02:00:12;;;;;;;13.50;5.93;;;;;;;;;;5027976;28;20136;-72
2022/10/30 02:02:38;;;;;;;16.67;6.35;;;;;;;;;;5010151;28;20052;-73
2022/10/30 02:05:06;;;;;;;19.60;6.82;;;;;;;;;;5016664;28;20121;-73
2022/10/30 02:07:32;;;;;;;14.27;6.03;;;;;;;;;;5014026;28;20044;-73
2022/10/30 02:09:58;;;;;;;12.65;6.50;;;;;;;;;;5013637;28;20022;-73
2022/10/30 02:12:26;;;;;;;15.05;6.03;;;;;;;;;;5016835;28;20060;-73
2022/10/30 02:14:54;;;;;;;14.20;6.00;;;;;;;;;;5020551;28;20105;-73
2022/10/30 02:17:20;;;;;;;13.65;6.20;;;;;;;;;;5017864;28;20108;-73
2022/10/30 02:19:46;;;;;;;14.27;6.40;;;;;;;;;;5013957;28;20496;-73
2022/10/30 02:22:12;;;;;;;17.20;5.90;;;;;;;;;;5019526;28;20034;-73
2022/10/30 02:24:39;;;;;;;13.18;5.30;;;;;;;;;;5016122;28;20406;-73
2022/10/30 02:27:05;;;;;;;18.25;5.70;;;;;;;;;;5014932;28;20026;-73
2022/10/30 02:29:31;;;;;;;22.15;6.32;;;;;;;;;;5016225;28;20028;-72
2022/10/30 02:31:57;;;;;;;16.13;6.68;;;;;;;;;;5015275;28;20496;-72
2022/10/30 02:34:23;;;;;;;11.85;5.75;;;;;;;;;;5017813;28;20032;-73
2022/10/30 02:36:49;;;;;;;16.00;5.95;;;;;;;;;;5012796;28;20072;-72
2022/10/30 02:39:16;;;;;;;17.80;6.38;;;;;;;;;;5016465;28;20473;-73
2022/10/30 02:41:43;;;;;;;12.82;6.10;;;;;;;;;;5016424;28;20033;-73
2022/10/30 02:44:09;;;;;;;19.05;6.78;;;;;;;;;;5014810;28;20018;-73
2022/10/30 02:46:35;;;;;;;14.23;6.03;;;;;;;;;;5014129;28;20018;-73
2022/10/30 02:49:01;;;;;;;15.35;5.70;;;;;;;;;;5020462;28;20013;-72
2022/10/30 02:51:28;;;;;;;11.82;5.68;;;;;;;;;;5018455;28;20017;-72
2022/10/30 02:53:54;;;;;;;13.65;6.50;;;;;;;;;;5013174;28;20021;-72
2022/10/30 02:56:20;;;;;;;11.95;6.10;;;;;;;;;;5017197;28;20036;-73
2022/10/30 02:58:46;;;;;;;12.82;6.55;;;;;;;;;;5019245;28;20036;-72
2022/10/30 03:01:13;;;;;;;14.32;5.78;;;;;;;;;;5015974;28;20026;-72
2022/10/30 03:03:40;;;;;;;13.98;5.47;;;;;;;;;;5017046;28;20220;-72
2022/10/30 03:06:07;;;;;;;15.95;5.70;;;;;;;;;;5012859;28;20026;-73
2022/10/30 03:08:33;;;;;;;10.93;5.53;;;;;;;;;;5024341;28;20033;-72
2022/10/30 03:11:04;;;;;;;8.98;5.70;;;;;;;;;;5014380;28;20055;-73
2022/10/30 03:13:31;;;;;;;17.50;6.20;;;;;;;;;;5015093;28;20036;-72
2022/10/30 03:16:01;;;;;;;20.05;5.78;;;;;;;;;;5011772;28;20022;-73
2022/10/30 03:18:27;;;;;;;12.10;6.75;;;;;;;;;;5018472;28;20249;-72
2022/10/30 03:21:00;;;;;;;14.68;7.25;;;;;;;;;;5015883;28;20033;-72
2022/10/30 03:23:27;;;;;;;14.45;6.32;;;;;;;;;;5014089;28;20066;-72
2022/10/30 03:25:54;;;;;;;12.57;6.10;;;;;;;;;;5015209;28;20025;-72
2022/10/30 03:28:25;;;;;;;12.02;6.78;;;;;;;;;;5015547;28;20048;-72
2022/10/30 03:30:51;;;;;;;15.07;6.60;;;;;;;;;;5018182;28;20096;-73
2022/10/30 03:33:18;;;;;;;20.58;6.80;;;;;;;;;;5013079;28;20029;-73
2022/10/30 03:35:44;;;;;;;11.95;6.53;;;;;;;;;;5016626;28;20073;-74
2022/10/30 03:38:13;;;;;;;15.13;7.18;;;;;;;;;;5014929;28;20167;-72
2022/10/30 03:40:40;;;;;;;18.23;7.70;;;;;;;;;;5016276;28;20139;-72
2022/10/30 03:43:06;;;;;;;17.58;8.15;;;;;;;;;;5013449;28;20223;-75
2022/10/30 03:45:33;;;;;;;15.98;7.60;;;;;;;;;;5022074;28;20021;-72
2022/10/30 03:48:03;;;;;;;12.18;6.93;;;;;;;;;;5024386;28;20041;-72
2022/10/30 03:50:29;;;;;;;13.48;6.63;;;;;;;;;;5017605;28;20033;-72
2022/10/30 03:52:56;;;;;;;14.02;8.25;;;;;;;;;;5018600;28;20084;-72
2022/10/30 03:55:22;;;;;;;16.15;7.35;;;;;;;;;;5018478;28;20071;-72
2022/10/30 03:57:48;;;;;;;14.57;8.15;;;;;;;;;;5025336;28;20013;-72
2022/10/30 04:00:15;;;;;;;16.90;8.07;;;;;;;;;;5019570;28;20026;-73
2022/10/30 04:02:45;;;;;;;13.65;7.75;;;;;;;;;;5015460;28;20029;-74
2022/10/30 04:05:11;;;;;;;16.73;7.22;;;;;;;;;;5026421;28;20017;-72
2022/10/30 04:07:37;;;;;;;16.70;7.70;;;;;;;;;;5018451;28;20148;-72
2022/10/30 04:10:03;;;;;;;15.98;7.43;;;;;;;;;;5015848;28;20018;-72
2022/10/30 04:12:29;;;;;;;20.80;7.28;;;;;;;;;;5019708;28;20042;-72
2022/10/30 04:14:56;;;;;;;15.25;7.93;;;;;;;;;;5021880;28;20028;-72
2022/10/30 04:17:22;;;;;;;15.15;7.60;;;;;;;;;;5016702;28;20036;-72
2022/10/30 04:19:48;;;;;;;21.10;8.90;;;;;;;;;;5017645;28;20087;-72
2022/10/30 04:22:14;;;;;;;15.77;7.53;;;;;;;;;;5013118;28;20040;-73
2022/10/30 04:24:40;;;;;;;12.75;7.57;;;;;;;;;;5025864;28;20025;-72
2022/10/30 04:27:06;;;;;;;22.58;8.57;;;;;;;;;;5018229;28;20101;-72
2022/10/30 04:29:33;;;;;;;14.45;7.28;;;;;;;;;;5015257;28;20037;-72
2022/10/30 04:31:59;;;;;;;19.95;8.15;;;;;;;;;;5007030;28;20370;-71
2022/10/30 04:34:25;;;;;;;16.30;7.60;;;;;;;;;;5014266;28;20036;-72
2022/10/30 04:36:51;;;;;;;17.25;7.63;;;;;;;;;;5011214;28;20225;-72
2022/10/30 04:39:17;;;;;;;13.23;7.38;;;;;;;;;;5009193;28;20022;-72
2022/10/30 04:41:43;;;;;;;17.55;8.02;;;;;;;;;;5014058;28;20030;-72
2022/10/30 04:44:10;;;;;;;19.95;8.32;;;;;;;;;;5019693;28;20604;-72
2022/10/30 04:46:36;;;;;;;18.23;8.77;;;;;;;;;;5011521;28;20022;-72
2022/10/30 04:49:02;;;;;;;16.83;7.97;;;;;;;;;;5008974;28;20025;-72
2022/10/30 04:51:28;;;;;;;14.30;7.72;;;;;;;;;;5014319;28;20067;-72
2022/10/30 04:53:54;;;;;;;15.88;8.55;;;;;;;;;;5013967;28;20056;-72
2022/10/30 04:56:21;;;;;;;17.35;8.43;;;;;;;;;;5012248;28;20069;-72
2022/10/30 04:58:47;;;;;;;17.83;8.68;;;;;;;;;;5014286;28;20097;-71
2022/10/30 05:01:13;;;;;;;16.42;8.35;;;;;;;;;;5008610;28;20049;-71
2022/10/30 05:03:39;;;;;;;14.73;8.00;;;;;;;;;;5019077;28;20029;-72
2022/10/30 05:06:06;;;;;;;17.63;8.35;;;;;;;;;;5017484;28;20028;-73
2022/10/30 05:08:32;;;;;;;17.48;8.65;;;;;;;;;;5009676;28;20034;-73
2022/10/30 05:10:59;;;;;;;18.38;8.07;;;;;;;;;;5018460;28;20025;-72
2022/10/30 05:13:26;;;;;;;17.80;7.93;;;;;;;;;;5011144;28;20603;-72
2022/10/30 05:15:54;;;;;;;15.52;8.98;;;;;;;;;;5013310;28;20018;-74
2022/10/30 05:18:20;;;;;;;15.88;8.15;;;;;;;;;;5013745;28;20258;-71
2022/10/30 05:20:47;;;;;;;19.73;7.72;;;;;;;;;;5020395;28;20079;-70
2022/10/30 05:23:13;;;;;;;16.20;9.55;;;;;;;;;;5011629;28;20603;-72
2022/10/30 05:25:39;;;;;;;16.98;8.75;;;;;;;;;;5017217;28;20804;-74
2022/10/30 05:28:06;;;;;;;15.60;8.50;;;;;;;;;;5017012;28;20466;-71
2022/10/30 05:30:33;;;;;;;16.13;8.82;;;;;;;;;;5021017;28;20095;-71
2022/10/30 05:33:04;;;;;;;17.08;8.60;;;;;;;;;;5019460;28;20025;-72
2022/10/30 05:35:33;;;;;;;16.38;8.82;;;;;;;;;;5019069;28;20179;-72
2022/10/30 05:38:03;;;;;;;19.55;8.85;;;;;;;;;;5017239;28;20064;-71
2022/10/30 05:40:29;;;;;;;19.13;8.32;;;;;;;;;;5017986;28;20378;-71
2022/10/30 05:42:55;;;;;;;16.65;9.70;;;;;;;;;;5014881;28;20088;-70
2022/10/30 05:45:21;;;;;;;17.10;9.48;;;;;;;;;;5021068;28;20105;-71
2022/10/30 05:47:58;;;;;;;19.95;8.95;;;;;;;;;;5020194;28;20055;-74
2022/10/30 05:50:24;;;;;;;15.98;8.50;;;;;;;;;;5017815;28;20040;-73
2022/10/30 05:52:54;;;;;;;15.70;8.48;;;;;;;;;;5017063;28;20021;-74
2022/10/30 05:55:21;;;;;;;19.38;9.90;;;;;;;;;;5015538;28;20034;-73
2022/10/30 05:57:47;;;;;;;16.80;9.30;;;;;;;;;;5016727;28;20060;-74
2022/10/30 06:00:14;;;;;;;13.57;8.98;;;;;;;;;;5016352;28;20417;-74
2022/10/30 06:02:40;;;;;;;20.38;9.55;;;;;;;;;;5015380;28;20044;-73
2022/10/30 06:05:06;;;;;;;20.27;10.02;;;;;;;;;;5016844;28;20076;-75
2022/10/30 06:07:32;;;;;;;22.02;9.30;;;;;;;;;;5014918;28;20820;-74
2022/10/30 06:09:58;;;;;;;18.48;9.43;;;;;;;;;;5014942;28;20433;-74
2022/10/30 06:12:24;;;;;;;21.17;9.00;;;;;;;;;;5017719;28;20437;-75
2022/10/30 06:14:51;;;;;;;16.38;8.48;;;;;;;;;;5015518;28;20120;-74
2022/10/30 06:17:17;;;;;;;15.63;8.32;;;;;;;;;;5013856;28;20474;-75
2022/10/30 06:19:43;;;;;;;17.55;8.45;;;;;;;;;;5016319;28;20167;-74
2022/10/30 06:22:09;;;;;;;17.80;8.48;;;;;;;;;;5013533;28;20049;-72
2022/10/30 06:24:36;;;;;;;15.32;8.35;;;;;;;;;;5014614;28;20088;-72
2022/10/30 06:27:02;;;;;;;15.57;8.48;;;;;;;;;;5004546;28;20100;-73
2022/10/30 06:29:28;;;;;;;16.92;9.27;;;;;;;;;;5015247;28;20088;-73
2022/10/30 06:31:54;;;;;;;21.10;8.68;;;;;;;;;;5017573;28;20111;-73
2022/10/30 06:34:20;;;;;;;17.83;9.02;;;;;;;;;;5013242;28;20558;-72
2022/10/30 06:36:46;;;;;;;17.27;8.73;;;;;;;;;;5008093;28;20049;-72
2022/10/30 06:39:13;;;;;;;14.18;7.60;;;;;;;;;;5009886;28;20018;-72
2022/10/30 06:41:39;;;;;;;16.70;7.95;;;;;;;;;;5011394;28;20477;-73
2022/10/30 06:44:05;;;;;;;14.88;7.95;;;;;;;;;;5010496;28;20637;-71
2022/10/30 06:46:31;;;;;;;12.77;7.35;;;;;;;;;;5008745;28;20096;-71
2022/10/30 06:48:57;;;;;;;17.77;8.38;;;;;;;;;;5005704;28;20026;-71
2022/10/30 06:51:24;;;;;;;16.77;9.00;;;;;;;;;;5010204;28;20024;-72
2022/10/30 06:53:50;;;;;;;16.00;7.57;;;;;;;;;;5010215;28;20530;-72
2022/10/30 06:56:16;;;;;;;22.42;8.27;;;;;;;;;;5010522;28;20079;-72
2022/10/30 06:58:42;;;;;;;15.88;7.85;;;;;;;;;;5007325;28;20021;-72
2022/10/30 07:01:08;;;;;;;14.70;6.95;;;;;;;;;;5008760;28;20100;-71
2022/10/30 07:03:35;;;;;;;18.27;7.60;;;;;;;;;;5012734;28;20232;-71
2022/10/30 07:06:01;;;;;;;17.80;7.45;;;;;;;;;;5009700;28;20103;-72
2022/10/30 07:08:27;;;;;;;16.42;7.55;;;;;;;;;;5012459;28;20553;-71
2022/10/30 07:10:56;;;;;;;13.98;7.10;;;;;;;;;;5014031;28;20030;-71
2022/10/30 07:13:22;;;;;;;13.27;6.95;;;;;;;;;;5008972;28;20026;-71
2022/10/30 07:15:48;;;;;;;17.60;7.57;;;;;;;;;;5041429;28;20080;-72
2022/10/30 07:18:14;;;;;;;10.07;6.95;;;;;;;;;;5008543;28;20348;-71
2022/10/30 07:20:40;;;;;;;16.77;7.63;;;;;;;;;;5011683;28;20021;-72
2022/10/30 07:23:07;;;;;;;11.13;7.90;;;;;;;;;;5009416;28;20034;-71
2022/10/30 07:25:33;;;;;;;14.38;7.90;;;;;;;;;;5014808;28;20014;-72
2022/10/30 07:28:00;;;;;;;16.55;8.07;;;;;;;;;;5010561;28;20038;-71
2022/10/30 07:30:27;;;;;;;17.27;8.70;;;;;;;;;;5015093;28;20018;-72
2022/10/30 07:33:06;;;;;;;13.60;8.07;;;;;;;;;;5013071;28;20308;-71
2022/10/30 07:35:34;;;;;;;13.23;7.97;;;;;;;;;;5010175;28;20038;-71
2022/10/30 07:38:03;;;;;;;16.50;9.18;;;;;;;;;;5010270;28;20457;-71
2022/10/30 07:40:29;;;;;;;12.63;8.02;;;;;;;;;;5013297;28;20037;-71
2022/10/30 07:42:56;;;;;;;15.77;9.43;;;;;;;;;;5039682;28;20048;-71
2022/10/30 07:45:22;;;;;;;18.65;11.35;;;;;;;;;;5015207;28;20057;-71
2022/10/30 07:47:49;;;;;;;20.33;10.73;;;;;;;;;;5011974;28;20037;-72
2022/10/30 07:50:15;;;;;;;26.00;12.38;;;;;;;;;;5012707;28;20030;-72
2022/10/30 07:52:41;;;;;;;14.55;11.20;;;;;;;;;;5005266;28;20017;-71
2022/10/30 07:55:07;;;;;;;28.40;13.60;;;;;;;;;;5013747;28;20053;-71
2022/10/30 07:57:37;;;;;;;21.27;12.23;;;;;;;;;;5011239;28;20048;-71
2022/10/30 08:00:04;;;;;;;19.55;11.68;;;;;;;;;;5010850;28;20499;-71
2022/10/30 08:02:31;;;;;;;20.08;11.30;;;;;;;;;;5012356;28;20431;-71
2022/10/30 08:04:57;;;;;;;19.33;11.63;;;;;;;;;;5016524;28;20044;-71
2022/10/30 08:07:23;;;;;;;19.63;10.82;;;;;;;;;;5008346;28;20026;-71
2022/10/30 08:09:49;;;;;;;20.92;10.68;;;;;;;;;;5006892;28;20014;-71
2022/10/30 08:12:15;;;;;;;26.25;11.15;;;;;;;;;;5009263;28;20094;-71
2022/10/30 08:14:41;;;;;;;17.02;10.30;;;;;;;;;;5005508;28;20033;-71
2022/10/30 08:17:09;;;;;;;19.83;8.75;;;;;;;;;;5011944;28;20397;-71
2022/10/30 08:19:35;;;;;;;13.05;8.88;;;;;;;;;;5009100;28;20021;-71
2022/10/30 08:22:01;;;;;;;13.93;9.07;;;;;;;;;;5011721;28;20040;-71
2022/10/30 08:24:28;;;;;;;16.42;9.90;;;;;;;;;;5017299;28;20057;-73
2022/10/30 08:26:54;;;;;;;17.02;10.38;;;;;;;;;;5005918;28;20108;-71
2022/10/30 08:29:20;;;;;;;16.40;8.68;;;;;;;;;;5016874;28;20022;-71
2022/10/30 08:31:49;;;;;;;16.17;8.45;;;;;;;;;;5007455;28;20022;-71
2022/10/30 08:34:16;;;;;;;14.48;9.43;;;;;;;;;;5019649;28;20474;-71
2022/10/30 08:36:42;;;;;;;12.32;8.10;;;;;;;;;;5016361;28;20053;-71
2022/10/30 08:39:09;;;;;;;14.07;7.97;;;;;;;;;;5014765;28;20037;-72
2022/10/30 08:41:35;;;;;;;15.68;8.90;;;;;;;;;;5009835;28;20481;-71
2022/10/30 08:44:01;;;;;;;17.25;8.32;;;;;;;;;;5010707;28;20017;-71
2022/10/30 08:46:27;;;;;;;15.43;7.88;;;;;;;;;;5015555;28;20500;-71
2022/10/30 08:48:54;;;;;;;15.13;7.10;;;;;;;;;;5012135;28;20458;-71
2022/10/30 08:51:20;;;;;;;12.90;6.90;;;;;;;;;;5023774;28;20025;-71
2022/10/30 08:53:49;;;;;;;12.98;6.95;;;;;;;;;;5012084;28;20033;-71
2022/10/30 08:56:16;;;;;;;10.43;6.93;;;;;;;;;;5015500;28;20017;-71
2022/10/30 08:58:42;;;;;;;14.60;6.80;;;;;;;;;;5015857;28;20048;-71
2022/10/30 09:01:08;;;;;;;13.55;7.00;;;;;;;;;;5012751;28;20014;-71
2022/10/30 09:03:34;;;;;;;10.75;6.47;;;;;;;;;;5021759;28;20200;-71
2022/10/30 09:06:01;;;;;;;9.93;6.80;;;;;;;;;;5014717;28;20025;-71
2022/10/30 09:08:27;;;;;;;11.70;6.63;;;;;;;;;;5021503;28;20033;-71
2022/10/30 09:10:54;;;;;;;10.10;6.70;;;;;;;;;;5019892;28;20056;-71
2022/10/30 09:13:21;;;;;;;11.60;7.40;;;;;;;;;;5018518;28;20474;-71
2022/10/30 09:15:47;;;;;;;14.68;6.90;;;;;;;;;;5017170;28;20436;-71
2022/10/30 09:18:13;;;;;;;19.90;7.18;;;;;;;;;;5014157;28;20025;-70
2022/10/30 09:20:39;;;;;;;13.13;6.93;;;;;;;;;;5019824;28;20053;-70
2022/10/30 09:23:05;;;;;;;11.70;7.10;;;;;;;;;;5015620;28;20030;-70
2022/10/30 09:25:31;;;;;;;15.95;7.38;;;;;;;;;;5019814;28;20018;-71
2022/10/30 09:27:57;;;;;;;14.68;6.88;;;;;;;;;;5014425;28;20030;-71
2022/10/30 09:30:24;;;;;;;14.77;7.22;;;;;;;;;;5025825;28;20394;-72
2022/10/30 09:32:54;;;;;;;13.80;6.88;;;;;;;;;;5016941;28;20377;-71
2022/10/30 09:35:21;;;;;;;15.65;8.60;;;;;;;;;;5016579;28;20489;-71
2022/10/30 09:37:47;;;;;;;27.85;13.48;;;;;;;;;;5015594;28;20065;-70
2022/10/30 09:40:23;;;;;;;23.42;11.52;;;;;;;;;;5021152;28;20029;-71
2022/10/30 09:42:50;;;;;;;15.23;7.78;;;;;;;;;;5019491;28;20544;-71
2022/10/30 09:45:16;;;;;;;12.77;7.50;;;;;;;;;;5017896;28;20025;-71
2022/10/30 09:47:50;;;;;;;36.10;16.70;;;;;;;;;;5017040;28;20137;-71
2022/10/30 09:50:25;;;;;;;16.73;9.73;;;;;;;;;;5018767;28;20021;-71
2022/10/30 09:52:51;;;;;;;18.88;10.20;;;;;;;;;;5018781;28;20033;-71
2022/10/30 09:55:17;;;;;;;28.80;14.55;;;;;;;;;;5017172;28;20033;-71
2022/10/30 09:57:49;;;;;;;41.22;19.65;;;;;;;;;;5016293;28;20068;-71
2022/10/30 10:00:30;;;;;;;31.13;15.40;;;;;;;;;;5024081;28;20028;-71
2022/10/30 10:03:03;;;;;;;24.50;12.93;;;;;;;;;;5016101;28;20212;-71
2022/10/30 10:05:34;;;;;;;25.33;13.52;;;;;;;;;;5006652;28;20018;-71
2022/10/30 10:08:04;;;;;;;15.60;9.32;;;;;;;;;;5016177;28;20021;-71
2022/10/30 10:10:36;;;;;;;19.60;9.52;;;;;;;;;;5021095;28;20017;-71
2022/10/30 10:13:03;;;;;;;11.45;6.82;;;;;;;;;;5016309;28;20048;-71
2022/10/30 10:15:56;;;;;;;9.63;6.70;;;;;;;;;;5032127;28;20069;-71
2022/10/30 10:18:29;;;;;;;18.00;8.88;;;;;;;;;;5021974;28;20042;-71
2022/10/30 10:20:57;;;;;;;12.95;8.77;;;;;;;;;;5019005;28;20068;-71
2022/10/30 10:23:32;;;;;;;12.05;6.75;;;;;;;;;;5015078;28;20029;-71
2022/10/30 10:26:00;;;;;;;12.05;6.07;;;;;;;;;;5013714;28;20261;-71
2022/10/30 10:28:26;;;;;;;9.35;6.05;;;;;;;;;;5017528;28;20047;-71
2022/10/30 10:30:58;;;;;;;13.02;7.00;;;;;;;;;;5019625;28;20452;-71
2022/10/30 10:33:49;;;;;;;9.32;6.53;;;;;;;;;;5032056;28;20049;-71
2022/10/30 10:36:18;;;;;;;15.07;8.90;;;;;;;;;;5014266;28;20435;-71
2022/10/30 10:38:51;;;;;;;10.88;6.53;;;;;;;;;;5016842;28;20025;-71
2022/10/30 10:41:18;;;;;;;10.38;6.80;;;;;;;;;;5017146;28;20581;-71
2022/10/30 10:44:03;;;;;;;10.00;6.07;;;;;;;;;;5016945;28;20026;-71
2022/10/30 10:46:37;;;;;;;31.48;14.88;;;;;;;;;;5028496;28;20016;-71
2022/10/30 10:49:18;;;;;;;14.73;7.50;;;;;;;;;;5015849;28;20022;-71
2022/10/30 10:51:57;;;;;;;10.45;5.68;;;;;;;;;;5017495;28;20021;-72
2022/10/30 10:54:23;;;;;;;8.90;5.32;;;;;;;;;;5014957;28;20382;-71
2022/10/30 10:56:49;;;;;;;11.55;6.03;;;;;;;;;;5013489;28;20111;-71
2022/10/30 10:59:34;;;;;;;14.18;8.48;;;;;;;;;;5017656;28;20041;-71
2022/10/30 11:02:09;;;;;;;19.70;8.73;;;;;;;;;;5011280;28;20051;-71
2022/10/30 11:04:38;;;;;;;20.35;10.73;;;;;;;;;;5015555;28;20505;-71
2022/10/30 11:07:24;;;;;;;15.13;9.60;;;;;;;;;;5019683;28;20267;-71
2022/10/30 11:09:52;;;;;;;18.35;10.25;;;;;;;;;;5014476;28;20022;-71
2022/10/30 11:12:24;;;;;;;19.95;10.50;;;;;;;;;;5015699;28;20093;-71
2022/10/30 11:14:50;;;;;;;20.65;11.48;;;;;;;;;;5011127;28;20075;-71
2022/10/30 11:17:38;;;;;;;19.55;9.88;;;;;;;;;;5016934;28;20470;-71
2022/10/30 11:20:33;;;;;;;24.20;11.45;;;;;;;;;;5016215;28;20026;-71
2022/10/30 11:23:00;;;;;;;16.63;8.52;;;;;;;;;;5017202;28;20033;-71
2022/10/30 11:25:32;;;;;;;17.65;7.65;;;;;;;;;;5015960;28;20033;-71
2022/10/30 11:28:01;;;;;;;18.35;9.88;;;;;;;;;;5013947;28;20078;-72
2022/10/30 11:30:27;;;;;;;15.32;8.13;;;;;;;;;;5016092;28;20017;-71
2022/10/30 11:32:57;;;;;;;15.15;7.72;;;;;;;;;;5014882;28;20017;-71
2022/10/30 11:35:23;;;;;;;12.70;6.88;;;;;;;;;;5015537;28;20029;-72
2022/10/30 11:37:50;;;;;;;11.10;6.35;;;;;;;;;;5014791;28;20044;-72
2022/10/30 11:40:19;;;;;;;13.32;7.45;;;;;;;;;;5015570;28;20033;-72
2022/10/30 11:42:48;;;;;;;13.52;6.43;;;;;;;;;;5012923;28;20447;-71
2022/10/30 11:45:15;;;;;;;16.77;6.72;;;;;;;;;;5020804;28;20112;-71
2022/10/30 11:47:42;;;;;;;13.77;8.02;;;;;;;;;;5018351;28;20473;-71
2022/10/30 11:50:28;;;;;;;10.70;7.70;;;;;;;;;;5011637;28;20022;-71
2022/10/30 11:52:56;;;;;;;20.33;8.20;;;;;;;;;;5013254;28;20026;-71
2022/10/30 11:55:39;;;;;;;9.77;8.05;;;;;;;;;;5014186;28;20082;-71
2022/10/30 11:58:08;;;;;;;12.65;7.47;;;;;;;;;;5012416;28;20316;-71
2022/10/30 12:00:35;;;;;;;16.90;9.35;;;;;;;;;;5014690;28;20174;-72
2022/10/30 12:03:02;;;;;;;18.15;10.00;;;;;;;;;;5012214;28;20056;-71
2022/10/30 12:05:30;;;;;;;14.27;9.18;;;;;;;;;;5016109;28;20486;-71
2022/10/30 12:08:08;;;;;;;13.73;9.10;;;;;;;;;;5017588;28;20334;-72
2022/10/30 12:10:46;;;;;;;20.02;9.20;;;;;;;;;;5018053;28;20052;-71
2022/10/30 12:13:14;;;;;;;20.30;10.88;;;;;;;;;;5017228;28;20474;-71
2022/10/30 12:15:40;;;;;;;21.80;11.73;;;;;;;;;;5018554;28;20033;-71
2022/10/30 12:18:08;;;;;;;17.70;11.60;;;;;;;;;;5018521;28;20919;-71
2022/10/30 12:20:37;;;;;;;15.32;9.40;;;;;;;;;;5017729;28;20054;-71
2022/10/30 12:23:10;;;;;;;15.65;9.75;;;;;;;;;;5021390;28;20065;-71
2022/10/30 12:25:36;;;;;;;18.80;9.65;;;;;;;;;;5011724;28;20037;-72
2022/10/30 12:28:14;;;;;;;20.13;8.95;;;;;;;;;;5017154;28;20466;-71
2022/10/30 12:30:51;;;;;;;19.17;9.52;;;;;;;;;;5019382;28;20026;-71
2022/10/30 12:33:20;;;;;;;16.15;9.63;;;;;;;;;;5020288;28;20071;-72
2022/10/30 12:35:46;;;;;;;15.63;9.55;;;;;;;;;;5011784;28;20389;-71
2022/10/30 12:38:17;;;;;;;19.50;10.13;;;;;;;;;;5012019;28;20198;-71
2022/10/30 12:40:46;;;;;;;12.93;10.18;;;;;;;;;;5016700;28;20686;-71
2022/10/30 12:43:20;;;;;;;17.17;9.98;;;;;;;;;;5011357;28;20099;-71
2022/10/30 12:45:48;;;;;;;15.07;9.73;;;;;;;;;;5016798;28;20009;-71
2022/10/30 12:48:36;;;;;;;14.00;9.27;;;;;;;;;;5005494;28;20402;-71
2022/10/30 12:51:10;;;;;;;16.48;9.75;;;;;;;;;;5017234;28;20661;-72
2022/10/30 12:53:44;;;;;;;19.70;10.63;;;;;;;;;;5009548;28;20037;-71
2022/10/30 12:56:18;;;;;;;12.05;9.25;;;;;;;;;;5019723;28;20033;-71
2022/10/30 12:58:53;;;;;;;17.40;10.13;;;;;;;;;;5011659;28;20108;-71
2022/10/30 13:01:25;;;;;;;20.92;11.68;;;;;;;;;;5009692;28;20087;-71
2022/10/30 13:04:10;;;;;;;16.27;9.10;;;;;;;;;;5024674;28;20025;-71
2022/10/30 13:06:52;;;;;;;12.90;8.73;;;;;;;;;;5017352;28;20226;-72
2022/10/30 13:09:20;;;;;;;15.85;11.00;;;;;;;;;;5016540;28;20477;-71
2022/10/30 13:11:55;;;;;;;17.40;9.38;;;;;;;;;;5025554;28;20053;-71
2022/10/30 13:14:26;;;;;;;13.23;9.25;;;;;;;;;;5013522;28;20037;-71
2022/10/30 13:16:53;;;;;;;19.08;10.77;;;;;;;;;;5018587;28;20018;-72
2022/10/30 13:19:19;;;;;;;12.27;9.93;;;;;;;;;;5014289;28;20017;-71
2022/10/30 13:21:48;;;;;;;19.23;11.00;;;;;;;;;;5021438;28;20468;-71
2022/10/30 13:24:28;;;;;;;15.77;10.93;;;;;;;;;;5020639;28;20095;-72
2022/10/30 13:26:54;;;;;;;19.63;11.15;;;;;;;;;;5014751;28;20239;-71
2022/10/30 13:29:20;;;;;;;18.15;10.32;;;;;;;;;;5017138;28;20490;-71
2022/10/30 13:31:46;;;;;;;15.85;11.23;;;;;;;;;;5017967;28;20029;-71
2022/10/30 13:34:31;;;;;;;22.70;10.75;;;;;;;;;;5019805;28;20378;-71
2022/10/30 13:37:05;;;;;;;20.17;10.63;;;;;;;;;;5017607;28;20044;-71
2022/10/30 13:39:35;;;;;;;14.25;10.40;;;;;;;;;;5020480;28;20535;-71
2022/10/30 13:42:04;;;;;;;15.67;10.43;;;;;;;;;;5013904;28;20053;-71
2022/10/30 13:44:37;;;;;;;24.85;10.68;;;;;;;;;;5015278;28;20090;-71
2022/10/30 13:47:21;;;;;;;18.25;11.10;;;;;;;;;;5015730;28;20024;-71
2022/10/30 13:49:54;;;;;;;17.95;11.38;;;;;;;;;;5039281;28;20026;-71
2022/10/30 13:52:22;;;;;;;18.23;10.32;;;;;;;;;;5015316;28;20692;-71
2022/10/30 13:55:17;;;;;;;21.67;11.52;;;;;;;;;;5013742;28;20378;-72
2022/10/30 13:57:46;;;;;;;22.50;10.95;;;;;;;;;;5019413;28;20042;-72
2022/10/30 14:00:13;;;;;;;17.50;10.55;;;;;;;;;;5025735;28;20437;-71
2022/10/30 14:02:39;;;;;;;18.48;11.50;;;;;;;;;;5015605;28;20225;-71
2022/10/30 14:05:18;;;;;;;23.00;11.05;;;;;;;;;;5018026;28;20017;-71
2022/10/30 14:07:53;;;;;;;18.30;11.40;;;;;;;;;;5012875;28;20030;-71
2022/10/30 14:10:23;;;;;;;17.52;11.63;;;;;;;;;;5019937;28;20048;-72
2022/10/30 14:13:04;;;;;;;18.13;10.70;;;;;;;;;;5017771;28;20429;-71
2022/10/30 14:15:30;;;;;;;17.35;10.23;;;;;;;;;;5018432;28;20033;-71
2022/10/30 14:18:12;;;;;;;17.17;11.23;;;;;;;;;;5020791;28;20026;-71
2022/10/30 14:20:49;;;;;;;18.67;12.45;;;;;;;;;;5017250;28;20025;-71
2022/10/30 14:23:15;;;;;;;23.58;11.90;;;;;;;;;;5015754;28;20042;-71
2022/10/30 14:25:41;;;;;;;16.02;11.32;;;;;;;;;;5013490;28;20076;-71
2022/10/30 14:28:20;;;;;;;17.58;12.15;;;;;;;;;;5019640;28;20025;-71
2022/10/30 14:30:47;;;;;;;19.67;11.57;;;;;;;;;;5012810;28;20050;-71
2022/10/30 14:33:31;;;;;;;24.77;11.23;;;;;;;;;;5017788;28;20086;-71
2022/10/30 14:36:30;;;;;;;17.75;11.52;;;;;;;;;;5014693;28;20045;-71
2022/10/30 14:39:09;;;;;;;20.70;12.10;;;;;;;;;;5011157;28;20116;-71